Alanya, Turkey
Current Conditions -  °F | °C
As of 4:50 PM on Saturday 20 Dec 2014 (Local Time) from LTFG Reporting Station
Rain Showers Rain Showers  
Wind Chill: 15°   Ceiling: 3000
Heat Index: 15°   Visibility: 6mi
Dew Point: 11°   Wind: 6mph
Humidity: 77%   Direction: 70°ENE
Pressure: 30.12"   Gusts: NA
Location:  36.56°N, 32°E
Report Text: LTFG 201350Z 07005KT 020V160 9999 -SHRA FEW020CB BKN030 15/11 Q1020
Loading
Personal Weather Stations






























Interactive Weather Map New forecast layout! Learn more

10-Day Weather Forecast

Advertisements
Track Severe Weather on mobile